Latest Coastal Weather Observations for Legendre Island

IDW60701

Issued at 6:12 am WST Wednesday 1 April 2015 (issued every 10 minutes, with the page automatically refreshed every 10 minutes)

About coastal observations | Map of coastal stations | Coastal observations for WA | Marine services | Other Formats
Station Details ID: 004095 Name: LEGENDRE ISLAND Lat: -20.36 Lon: 116.84 Height: 29.0 m
Data from the previous 72 hours. | See also: Recent months for locations in Western Australia
Date/Time
WST
Temp

°C
Wind Pressure Rain
since 9am
mm
Weather Cloud Vis
km
Sea
Height
m
Swell
Dir
 
Speed
knots
Gust
knots
hPa Trend Height
m
Period
s
Dir
01/06:00am 26.3 WSW 6 7 1013.3 - - - - - - - - -
01/05:30am 26.5 WSW 5 5 1013.2 - - - - - - - - -
01/05:00am 26.5 WSW 5 6 1013.1 - - - - - - - - -
01/04:30am 26.9 SW 6 7 1013.1 - - - - - - - - -
01/04:00am 26.9 SW 6 8 1013.0 - - - - - - - - -
01/03:30am 26.8 WSW 5 6 1012.9 - - - - - - - - -
01/03:00am 26.9 SW 6 7 1012.9 - - - - - - - - -
01/02:30am 27.0 SW 5 7 1012.9 - - - - - - - - -
01/02:00am 26.9 SW 5 6 1012.8 - - - - - - - - -
01/01:30am 27.3 SW 6 7 1013.0 - - - - - - - - -
01/01:00am 27.3 WSW 7 9 1013.2 - - - - - - - - -
01/12:30am 27.3 WSW 7 8 1013.3 - - - - - - - - -
01/12:00am 27.0 WSW 5 6 1013.5 - - - - - - - - -
 
Date/Time
WST
Temp

°C
Wind Pressure Rain
since 9am
mm
Weather Cloud Vis
km
Sea
Height
m
Swell
Dir
 
Speed
knots
Gust
knots
hPa Trend Height
m
Period
s
Dir
31/11:30pm 27.3 W 4 5 1013.6 - - - - - - - - -
31/11:00pm 27.6 W 5 7 1013.7 - - - - - - - - -
31/10:30pm 27.7 W 5 6 1014.0 - - - - - - - - -
31/10:00pm 28.1 WNW 3 5 1013.9 - - - - - - - - -
31/09:30pm 27.9 WNW 5 6 1014.1 - - - - - - - - -
31/09:00pm 28.0 WNW 5 5 1014.0 - - - - - - - - -
31/08:30pm 28.1 WNW 4 5 1013.9 - - - - - - - - -
31/08:00pm 28.3 WNW 5 6 1013.8 - - - - - - - - -
31/07:30pm 28.3 WNW 6 7 1013.4 - - - - - - - - -
31/07:00pm 28.4 W 5 6 1013.2 - - - - - - - - -
31/06:30pm 28.6 WNW 4 5 1012.7 - - - - - - - - -
31/06:00pm 29.2 NW 4 5 1012.3 - - - - - - - - -
31/05:30pm 29.9 WNW 5 7 1012.2 - - - - - - - - -
31/05:00pm 30.3 NW 5 7 1012.0 - - - - - - - - -
31/04:30pm 30.4 NW 5 8 1012.0 - - - - - - - - -
31/04:00pm 30.8 NNW 5 7 1011.8 - - - - - - - - -
31/03:30pm 30.7 N 5 7 1011.7 - - - - - - - - -
31/03:00pm 30.8 N 6 7 1011.6 - - - - - - - - -
31/02:30pm 31.5 N 6 7 1011.9 - - - - - - - - -
31/02:00pm 31.6 NNE 6 8 1012.1 - - - - - - - - -
31/01:30pm 31.8 NE 7 8 1012.4 - - - - - - - - -
31/01:00pm 32.1 NNE 6 7 1012.7 - - - - - - - - -
31/12:30pm 31.9 NNE 5 6 1013.0 - - - - - - - - -
31/12:00pm 32.1 NNE 5 6 1013.3 - - - - - - - - -
31/11:30am 31.4 NNE 6 6 1013.7 - - - - - - - - -
31/11:00am 31.0 NNE 5 6 1014.0 - - - - - - - - -
31/10:30am 30.1 N 4 5 1014.4 - - - - - - - - -
31/10:00am 28.9 N 5 6 1014.6 - - - - - - - - -
31/09:30am 28.7 NNW 6 7 1014.9 - - - - - - - - -
31/09:00am 28.1 NNW 7 8 1014.6 - - - - - - - - -
31/08:30am 27.7 NNW 9 11 1014.2 - - - - - - - - -
31/08:00am 27.6 NNW 11 14 1014.0 - - - - - - - - -
31/07:30am 27.3 NNW 12 15 1013.7 - - - - - - - - -
31/07:00am 25.9 NW 11 15 1013.7 - - - - - - - - -
31/06:30am 25.5 NW 15 19 1013.3 - - - - - - - - -
31/06:00am 25.5 NW 20 26 1013.4 - - - - - - - - -
31/05:48am 25.7 NNW 10 26 1013.4 - - - - - - - - -
31/05:30am 26.1 NW 5 6 1013.1 - - - - - - - - -
31/05:00am 25.6 W 8 10 1013.0 - - - - - - - - -
31/04:30am 28.5 N 5 6 1012.9 - - - - - - - - -
31/04:00am 28.6 N 7 8 1012.5 - - - - - - - - -
31/03:30am 28.6 N 6 7 1012.8 - - - - - - - - -
31/03:00am 28.7 N 8 10 1012.5 - - - - - - - - -
31/02:30am 28.6 N 8 9 1012.4 - - - - - - - - -
31/02:00am 28.6 N 8 10 1012.7 - - - - - - - - -
31/01:30am 28.6 N 10 11 1012.9 - - - - - - - - -
31/01:00am 28.2 N 9 11 1012.9 - - - - - - - - -
31/12:30am 28.6 NNW 10 12 1013.3 - - - - - - - - -
31/12:00am 28.6 N 12 14 1013.2 - - - - - - - - -
 
Date/Time
WST
Temp

°C
Wind Pressure Rain
since 9am
mm
Weather Cloud Vis
km
Sea
Height
m
Swell
Dir
 
Speed
knots
Gust
knots
hPa Trend Height
m
Period
s
Dir
30/11:30pm 28.9 N 14 16 1013.6 - - - - - - - - -
30/11:00pm 29.1 N 15 17 1013.4 - - - - - - - - -
30/10:30pm 29.1 N 14 16 1013.3 - - - - - - - - -
30/10:00pm 29.1 N 14 16 1013.3 - - - - - - - - -
30/09:30pm 28.9 N 12 14 1013.5 - - - - - - - - -
30/09:00pm 28.7 NNE 14 16 1013.3 - - - - - - - - -
30/08:30pm 28.8 N 16 19 1013.2 - - - - - - - - -
30/08:00pm 29.1 N 17 20 1013.3 - - - - - - - - -
30/07:30pm 29.0 NNE 17 19 1012.9 - - - - - - - - -
30/07:00pm 28.8 NNE 16 18 1012.4 - - - - - - - - -
30/06:30pm 28.9 NNE 16 18 1011.9 - - - - - - - - -
30/06:00pm 29.0 NNE 15 18 1011.8 - - - - - - - - -
30/05:30pm 29.0 NNE 16 18 1011.7 - - - - - - - - -
30/05:00pm 29.3 NNE 14 17 1011.7 - - - - - - - - -
30/04:30pm 29.3 NNE 14 16 1011.4 - - - - - - - - -
30/04:00pm 29.4 NNE 14 16 1011.5 - - - - - - - - -
30/03:30pm 29.3 NNE 16 18 1011.3 - - - - - - - - -
30/03:00pm 29.4 NNE 15 17 1011.3 - - - - - - - - -
30/02:30pm 29.5 NNE 14 16 1011.5 - - - - - - - - -
30/02:00pm 29.6 NNE 14 16 1011.7 - - - - - - - - -
30/01:30pm 29.5 NNE 16 19 1011.6 - - - - - - - - -
30/01:00pm 30.4 NNE 18 21 1011.1 - - - - - - - - -
30/12:30pm 30.1 NNE 18 21 1011.4 - - - - - - - - -
30/12:00pm 31.4 NNE 19 22 1011.8 - - - - - - - - -
30/11:30am 31.0 NNE 19 21 1012.4 - - - - - - - - -
30/11:00am 30.6 NE 18 22 1012.7 - - - - - - - - -
30/10:30am 29.6 NE 18 21 1013.1 - - - - - - - - -
30/10:00am 29.2 NE 19 22 1012.9 - - - - - - - - -
30/09:30am 28.8 NE 20 23 1013.1 - - - - - - - - -
30/09:00am 28.9 NE 21 25 1012.8 - - - - - - - - -
30/08:30am 28.6 NE 21 25 1012.4 - - - - - - - - -
30/08:00am 28.3 NNE 21 26 1012.5 - - - - - - - - -
30/07:30am 27.4 NE 18 22 1012.3 - - - - - - - - -
30/07:00am 28.2 NNE 20 23 1011.8 - - - - - - - - -
30/06:30am 27.8 NNE 20 23 1011.9 - - - - - - - - -
30/06:00am 27.0 NE 15 20 1011.7 - - - - - - - - -
30/05:30am 26.3 NE 18 23 1011.5 - - - - - - - - -
30/05:00am 25.9 NE 15 19 1010.9 - - - - - - - - -
30/04:37am 25.8 NE 24 30 1010.7 - - - - - - - - -
30/04:30am 26.0 NNE 25 30 1010.3 - - - - - - - - -
30/04:00am 27.4 NE 18 23 1010.1 - - - - - - - - -
30/03:30am 27.2 NNE 22 27 1010.1 - - - - - - - - -
30/03:00am 26.8 NNE 24 29 1009.4 - - - - - - - - -
30/02:54am 27.0 NNE 24 27 1009.4 - - - - - - - - -
30/02:30am 28.2 NE 27 33 1009.9 - - - - - - - - -
30/02:00am 27.5 NE 27 31 1010.5 - - - - - - - - -
30/01:30am 26.7 NE 24 30 1011.2 - - - - - - - - -
30/01:21am 27.4 NE 21 27 1010.9 - - - - - - - - -
30/01:00am 28.9 ENE 24 28 1011.1 - - - - - - - - -
30/12:30am 29.0 ENE 21 25 1011.8 - - - - - - - - -
30/12:00am 28.9 ENE 23 27 1012.0 - - - - - - - - -
 
Date/Time
WST
Temp

°C
Wind Pressure Rain
since 9am
mm
Weather Cloud Vis
km
Sea
Height
m
Swell
Dir
 
Speed
knots
Gust
knots
hPa Trend Height
m
Period
s
Dir
29/11:30pm 28.9 NE 21 25 1012.4 - - - - - - - - -
29/11:00pm 29.0 ENE 21 25 1012.4 - - - - - - - - -
29/10:30pm 28.9 ENE 22 25 1012.8 - - - - - - - - -
29/10:00pm 28.9 ENE 21 24 1013.0 - - - - - - - - -
29/09:30pm 28.9 ENE 23 26 1012.8 - - - - - - - - -
29/09:00pm 29.0 ENE 22 26 1012.8 - - - - - - - - -
29/08:30pm 28.9 ENE 20 24 1012.6 - - - - - - - - -
29/08:00pm 28.7 ENE 20 23 1012.2 - - - - - - - - -
29/07:30pm 28.7 ENE 18 22 1012.1 - - - - - - - - -
29/07:00pm 28.7 NE 21 24 1011.7 - - - - - - - - -
29/06:30pm 29.1 NE 22 25 1011.1 - - - - - - - - -
29/06:00pm 29.5 NE 18 21 1010.8 - - - - - - - - -
29/05:30pm 29.8 NE 19 22 1010.3 - - - - - - - - -
29/05:00pm 29.9 NE 22 25 1009.9 - - - - - - - - -
29/04:30pm 30.4 NE 22 25 1009.9 - - - - - - - - -
29/04:00pm 31.1 NE 18 21 1009.9 - - - - - - - - -
29/03:30pm 31.6 NE 17 19 1010.0 - - - - - - - - -
29/03:00pm 31.8 NE 13 14 1010.2 - - - - - - - - -
29/02:30pm 31.9 NE 15 17 1010.5 - - - - - - - - -
29/02:00pm 32.2 ENE 15 17 1010.8 - - - - - - - - -
29/01:30pm 32.6 ENE 15 17 1010.7 - - - - - - - - -
29/01:00pm 32.7 E 13 15 1011.1 - - - - - - - - -
29/12:30pm 32.7 E 11 13 1011.6 - - - - - - - - -
29/12:00pm 32.9 E 12 14 1012.1 - - - - - - - - -
29/11:30am 32.5 E 13 14 1012.6 - - - - - - - - -
29/11:00am 32.7 E 11 12 1013.2 - - - - - - - - -
29/10:30am 32.2 E 10 12 1013.2 - - - - - - - - -
29/10:00am 32.1 ENE 10 11 1013.3 - - - - - - - - -
29/09:30am 32.1 ENE 10 11 1013.4 - - - - - - - - -
29/09:00am 31.7 ENE 8 8 1013.1 - - - - - - - - -
29/08:30am 31.3 ENE 7 8 1012.9 - - - - - - - - -
29/08:00am 30.7 ENE 9 10 1012.7 - - - - - - - - -
29/07:30am 30.2 ENE 7 8 1012.5 - - - - - - - - -
29/07:00am 29.4 E 3 5 1012.3 - - - - - - - - -
29/06:30am 28.6 E 5 5 1011.9 - - - - - - - - -

Other Formats:

Comma delimited format used in spreadsheet applications
http://www.bom.gov.au/fwo/IDW60701/IDW60701.94307.axf

JavaScript Object Notation format (JSON) in row-major order
http://www.bom.gov.au/fwo/IDW60701/IDW60701.94307.json